createdAt,value
2018-12-19T00:00:04.784Z,1.30
2018-12-19T00:01:04.869Z,1.30
2018-12-19T00:02:04.944Z,1.30
2018-12-19T00:03:05.044Z,1.30
2018-12-19T00:04:04.259Z,1.30
2018-12-19T00:05:04.554Z,1.30
2018-12-19T00:06:05.160Z,1.30
2018-12-19T00:07:04.632Z,1.30
2018-12-19T00:08:04.786Z,1.30
2018-12-19T00:09:04.805Z,1.30
2018-12-19T00:10:05.016Z,1.30
2018-12-19T00:11:04.971Z,1.30
2018-12-19T00:12:04.942Z,1.30
2018-12-19T00:13:04.950Z,1.30
2018-12-19T00:14:05.027Z,1.30
2018-12-19T00:15:05.091Z,1.20
2018-12-19T00:16:04.790Z,1.20
2018-12-19T00:17:04.823Z,1.20
2018-12-19T00:18:04.965Z,1.20
2018-12-19T00:19:04.570Z,1.20
2018-12-19T00:20:04.985Z,1.10
2018-12-19T00:21:04.404Z,1.10
2018-12-19T00:22:04.423Z,1.10
2018-12-19T00:23:04.794Z,1.10
2018-12-19T00:24:04.739Z,1.10
2018-12-19T00:25:04.713Z,1.10
2018-12-19T00:26:04.400Z,1.10
2018-12-19T00:27:05.643Z,1.00
2018-12-19T00:28:05.154Z,1.00
2018-12-19T00:29:04.337Z,1.00
2018-12-19T00:30:04.320Z,1.00
2018-12-19T00:31:04.759Z,1.00
2018-12-19T00:32:04.833Z,1.00
2018-12-19T00:33:04.468Z,1.00
2018-12-19T00:34:05.023Z,1.00
2018-12-19T00:35:04.570Z,1.00
2018-12-19T00:36:04.266Z,1.00
2018-12-19T00:37:04.679Z,1.00
2018-12-19T00:38:04.771Z,1.00
2018-12-19T00:39:09.479Z,1.00
2018-12-19T00:40:04.728Z,0.90
2018-12-19T00:41:04.975Z,0.90
2018-12-19T00:42:04.964Z,0.90
2018-12-19T00:43:04.977Z,0.90
2018-12-19T00:44:05.215Z,0.90
2018-12-19T00:45:04.430Z,0.90
2018-12-19T00:46:09.450Z,0.90
2018-12-19T00:47:04.863Z,0.90
2018-12-19T00:48:05.017Z,0.90
2018-12-19T00:49:04.977Z,0.90
2018-12-19T00:50:05.018Z,0.90
2018-12-19T00:51:04.442Z,0.90
2018-12-19T00:52:04.508Z,0.90
2018-12-19T00:53:04.679Z,0.90
2018-12-19T00:54:04.820Z,0.90
2018-12-19T00:55:04.555Z,0.90
2018-12-19T00:56:04.464Z,0.90
2018-12-19T00:57:04.529Z,0.80
2018-12-19T00:58:04.591Z,0.80
2018-12-19T00:59:04.914Z,0.80
2018-12-19T01:00:04.735Z,0.90
2018-12-19T01:01:04.795Z,0.90
2018-12-19T01:02:04.870Z,0.90
2018-12-19T01:03:04.492Z,0.90
2018-12-19T01:04:04.644Z,1.00
2018-12-19T01:05:04.570Z,1.00
2018-12-19T01:06:04.357Z,1.00
2018-12-19T01:07:04.450Z,1.00
2018-12-19T01:08:04.470Z,1.00
2018-12-19T01:09:04.588Z,1.00
2018-12-19T01:10:04.849Z,1.00
2018-12-19T01:11:05.096Z,1.00
2018-12-19T01:12:04.597Z,1.00
2018-12-19T01:13:04.612Z,1.00
2018-12-19T01:14:04.601Z,1.00
2018-12-19T01:15:04.593Z,1.00
2018-12-19T01:16:04.522Z,1.10
2018-12-19T01:17:04.617Z,1.10
2018-12-19T01:18:04.610Z,1.10
2018-12-19T01:19:04.710Z,1.10
2018-12-19T01:20:04.794Z,1.10
2018-12-19T01:21:04.205Z,1.10
2018-12-19T01:22:04.808Z,1.10
2018-12-19T01:23:04.908Z,1.10
2018-12-19T01:24:04.958Z,1.10
2018-12-19T01:25:04.694Z,1.10
2018-12-19T01:26:04.353Z,1.10
2018-12-19T01:27:04.639Z,1.00
2018-12-19T01:28:04.796Z,1.00
2018-12-19T01:29:04.197Z,1.00
2018-12-19T01:30:04.391Z,1.00
2018-12-19T01:31:04.442Z,1.00
2018-12-19T01:32:04.749Z,1.00
2018-12-19T01:33:04.233Z,1.00
2018-12-19T01:34:04.508Z,1.00
2018-12-19T01:35:04.568Z,1.00
2018-12-19T01:36:05.093Z,1.00
2018-12-19T01:37:04.454Z,0.90
2018-12-19T01:38:04.368Z,0.90
2018-12-19T01:39:04.485Z,0.90
2018-12-19T01:40:04.511Z,0.90
2018-12-19T01:41:04.841Z,0.90
2018-12-19T01:42:05.188Z,0.90
2018-12-19T01:43:05.202Z,0.80
2018-12-19T01:44:04.462Z,0.80
2018-12-19T01:45:05.051Z,0.80
2018-12-19T01:46:04.255Z,0.80
2018-12-19T01:47:04.926Z,0.70
2018-12-19T01:48:04.813Z,0.70
2018-12-19T01:49:04.392Z,0.70
2018-12-19T01:50:04.458Z,0.70
2018-12-19T01:51:04.590Z,0.70
2018-12-19T01:52:04.595Z,0.60
2018-12-19T01:53:04.634Z,0.60
2018-12-19T01:54:04.658Z,0.60
2018-12-19T01:55:04.650Z,0.60
2018-12-19T01:56:04.708Z,0.60
2018-12-19T01:57:04.981Z,0.60
2018-12-19T01:58:05.183Z,0.60
2018-12-19T01:59:04.693Z,0.60
2018-12-19T02:00:04.743Z,0.60
2018-12-19T02:01:05.071Z,0.60
2018-12-19T02:02:04.272Z,0.60
2018-12-19T02:03:04.920Z,0.60
2018-12-19T02:04:04.926Z,0.60
2018-12-19T02:05:04.929Z,0.60
2018-12-19T02:06:05.068Z,0.60
2018-12-19T02:07:04.928Z,0.60
2018-12-19T02:08:10.010Z,0.70
2018-12-19T02:09:04.438Z,0.70
2018-12-19T02:10:04.477Z,0.70
2018-12-19T02:11:04.526Z,0.70
2018-12-19T02:12:04.622Z,0.70
2018-12-19T02:13:04.460Z,0.80
2018-12-19T02:14:04.507Z,0.70
2018-12-19T02:15:04.903Z,0.70
2018-12-19T02:16:05.024Z,0.70
2018-12-19T02:17:04.526Z,0.70
2018-12-19T02:18:04.775Z,0.70
2018-12-19T02:19:04.337Z,0.70
2018-12-19T02:20:04.743Z,0.70
2018-12-19T02:21:04.688Z,0.70
2018-12-19T02:22:05.179Z,0.70
2018-12-19T02:23:04.643Z,0.60
2018-12-19T02:24:05.027Z,0.60
2018-12-19T02:25:04.498Z,0.60
2018-12-19T02:26:04.730Z,0.60
2018-12-19T02:27:04.433Z,0.60
2018-12-19T02:28:04.412Z,0.60
2018-12-19T02:29:04.500Z,0.60
2018-12-19T02:30:05.146Z,0.60
2018-12-19T02:31:04.480Z,0.50
2018-12-19T02:32:04.529Z,0.50
2018-12-19T02:33:04.831Z,0.50
2018-12-19T02:34:04.979Z,0.50
2018-12-19T02:35:04.168Z,0.50
2018-12-19T02:36:04.673Z,0.50
2018-12-19T02:37:04.757Z,0.50
2018-12-19T02:38:04.813Z,0.50
2018-12-19T02:39:04.762Z,0.50
2018-12-19T02:40:04.994Z,0.50
2018-12-19T02:41:04.359Z,0.50
2018-12-19T02:42:04.330Z,0.50
2018-12-19T02:43:04.351Z,0.50
2018-12-19T02:44:04.610Z,0.40
2018-12-19T02:45:04.721Z,0.40
2018-12-19T02:46:04.834Z,0.40
2018-12-19T02:47:04.471Z,0.40
2018-12-19T02:48:04.497Z,0.40
2018-12-19T02:49:05.073Z,0.40
2018-12-19T02:50:05.162Z,0.40
2018-12-19T02:51:04.568Z,0.40
2018-12-19T02:52:04.784Z,0.40
2018-12-19T02:53:04.781Z,0.40
2018-12-19T02:54:04.905Z,0.40
2018-12-19T02:55:04.920Z,0.40
2018-12-19T02:56:04.516Z,0.40
2018-12-19T02:57:04.652Z,0.40
2018-12-19T02:58:04.226Z,0.40
2018-12-19T02:59:04.366Z,0.40
2018-12-19T03:00:04.771Z,0.40
2018-12-19T03:01:04.851Z,0.50
2018-12-19T03:02:05.298Z,0.50
2018-12-19T03:03:04.590Z,0.50
2018-12-19T03:04:04.526Z,0.50
2018-12-19T03:05:04.639Z,0.60
2018-12-19T03:06:04.836Z,0.60
2018-12-19T03:07:04.349Z,0.60
2018-12-19T03:08:04.587Z,0.70
2018-12-19T03:09:04.659Z,0.70
2018-12-19T03:10:04.717Z,0.70
2018-12-19T03:11:04.287Z,0.80
2018-12-19T03:12:04.479Z,0.80
2018-12-19T03:13:04.518Z,0.80
2018-12-19T03:14:04.555Z,0.90
2018-12-19T03:15:04.869Z,0.90
2018-12-19T03:16:04.216Z,1.00
2018-12-19T03:17:04.889Z,1.00
2018-12-19T03:18:04.478Z,1.00
2018-12-19T03:19:04.499Z,1.00
2018-12-19T03:20:04.505Z,1.00
2018-12-19T03:21:04.537Z,1.00
2018-12-19T03:22:04.211Z,1.00
2018-12-19T03:23:04.380Z,1.00
2018-12-19T03:24:04.604Z,1.00
2018-12-19T03:25:04.873Z,1.00
2018-12-19T03:26:05.127Z,1.00
2018-12-19T03:27:05.123Z,1.00
2018-12-19T03:28:04.348Z,1.00
2018-12-19T03:29:04.974Z,1.00
2018-12-19T03:30:04.935Z,1.00
2018-12-19T03:31:04.566Z,1.00
2018-12-19T03:32:04.917Z,1.00
2018-12-19T03:33:04.363Z,1.00
2018-12-19T03:34:04.873Z,1.00
2018-12-19T03:35:04.389Z,1.00
2018-12-19T03:36:04.844Z,1.00
2018-12-19T03:37:09.551Z,1.00
2018-12-19T03:38:04.958Z,1.00
2018-12-19T03:39:05.046Z,0.90
2018-12-19T03:40:05.019Z,0.90
2018-12-19T03:41:05.175Z,0.90
2018-12-19T03:42:05.188Z,0.90
2018-12-19T03:43:04.116Z,0.90
2018-12-19T03:44:04.287Z,0.90
2018-12-19T03:45:04.196Z,0.90
2018-12-19T03:46:04.555Z,0.90
2018-12-19T03:47:04.825Z,0.90
2018-12-19T03:48:05.040Z,0.90
2018-12-19T03:49:05.108Z,0.90
2018-12-19T03:50:04.645Z,0.90
2018-12-19T03:51:04.603Z,0.90
2018-12-19T03:52:04.741Z,0.90
2018-12-19T03:53:04.806Z,0.90
2018-12-19T03:54:05.105Z,1.00
2018-12-19T03:55:05.192Z,1.00
2018-12-19T03:56:04.338Z,1.00
2018-12-19T03:57:04.258Z,1.00
2018-12-19T03:58:04.306Z,1.00
2018-12-19T03:59:04.787Z,1.00
2018-12-19T04:00:04.803Z,1.10
2018-12-19T04:01:04.905Z,1.10
2018-12-19T04:02:05.052Z,1.10
2018-12-19T04:03:04.397Z,1.10
2018-12-19T04:04:04.485Z,1.10
2018-12-19T04:05:04.356Z,1.10
2018-12-19T04:06:04.450Z,1.10
2018-12-19T04:07:04.997Z,1.10
2018-12-19T04:08:04.628Z,1.10
2018-12-19T04:09:05.171Z,1.10
2018-12-19T04:10:05.176Z,1.10
2018-12-19T04:11:05.110Z,1.10
2018-12-19T04:12:04.326Z,1.10
2018-12-19T04:13:04.399Z,1.10
2018-12-19T04:14:04.569Z,1.10
2018-12-19T04:15:04.688Z,1.10
2018-12-19T04:16:04.536Z,1.10
2018-12-19T04:17:04.764Z,1.10
2018-12-19T04:18:04.401Z,1.10
2018-12-19T04:19:05.099Z,1.10
2018-12-19T04:20:05.185Z,1.10
2018-12-19T04:21:05.078Z,1.10
2018-12-19T04:22:04.322Z,1.10
2018-12-19T04:23:04.255Z,1.10
2018-12-19T04:24:04.298Z,1.00
2018-12-19T04:25:04.610Z,1.10
2018-12-19T04:26:04.920Z,1.00
2018-12-19T04:27:04.310Z,1.00
2018-12-19T04:28:04.750Z,1.10
2018-12-19T04:29:04.883Z,1.10
2018-12-19T04:30:04.301Z,1.10
2018-12-19T04:31:04.379Z,1.10
2018-12-19T04:32:04.462Z,1.10
2018-12-19T04:33:04.628Z,1.10
2018-12-19T04:34:04.598Z,1.10
2018-12-19T04:35:04.979Z,1.10
2018-12-19T04:36:04.596Z,1.10
2018-12-19T04:37:04.233Z,1.00
2018-12-19T04:38:04.216Z,1.00
2018-12-19T04:39:04.375Z,1.00
2018-12-19T04:40:05.554Z,1.00
2018-12-19T04:41:04.605Z,1.00
2018-12-19T04:42:04.770Z,1.00
2018-12-19T04:43:04.936Z,1.00
2018-12-19T04:44:04.845Z,1.00
2018-12-19T04:45:09.644Z,1.00
2018-12-19T04:46:05.001Z,1.00
2018-12-19T04:47:05.045Z,1.00
2018-12-19T04:48:05.125Z,1.00
2018-12-19T04:49:04.339Z,1.00
2018-12-19T04:50:04.397Z,1.00
2018-12-19T04:51:04.809Z,1.00
2018-12-19T04:52:05.024Z,1.00
2018-12-19T04:53:04.328Z,1.00
2018-12-19T04:54:04.664Z,1.00
2018-12-19T04:55:04.642Z,1.00
2018-12-19T04:56:04.814Z,1.00
2018-12-19T04:57:04.963Z,1.00
2018-12-19T04:58:04.896Z,1.00
2018-12-19T04:59:04.214Z,1.00
2018-12-19T05:00:04.241Z,1.00
2018-12-19T05:01:04.351Z,1.10
2018-12-19T05:02:04.356Z,1.10
2018-12-19T05:03:04.428Z,1.10
2018-12-19T05:04:04.947Z,1.10
2018-12-19T05:05:04.978Z,1.10
2018-12-19T05:06:05.250Z,1.10
2018-12-19T05:07:04.505Z,1.20
2018-12-19T05:08:04.630Z,1.20
2018-12-19T05:09:04.795Z,1.20
2018-12-19T05:10:04.265Z,1.20
2018-12-19T05:11:04.871Z,1.20
2018-12-19T05:12:04.754Z,1.20
2018-12-19T05:13:04.776Z,1.20
2018-12-19T05:14:05.075Z,1.20
2018-12-19T05:15:04.915Z,1.20
2018-12-19T05:16:04.889Z,1.10
2018-12-19T05:17:05.023Z,1.10
2018-12-19T05:18:04.986Z,1.10
2018-12-19T05:19:04.627Z,1.10
2018-12-19T05:20:04.872Z,1.10
2018-12-19T05:21:04.282Z,1.10
2018-12-19T05:22:04.472Z,1.10
2018-12-19T05:23:04.619Z,1.10
2018-12-19T05:24:04.978Z,1.10
2018-12-19T05:25:04.682Z,1.10
2018-12-19T05:26:05.188Z,1.10
2018-12-19T05:27:04.632Z,1.10
2018-12-19T05:28:04.903Z,1.10
2018-12-19T05:29:04.930Z,1.00
2018-12-19T05:30:04.843Z,1.00
2018-12-19T05:31:05.045Z,1.00
2018-12-19T05:32:05.021Z,1.00
2018-12-19T05:33:04.544Z,1.00
2018-12-19T05:34:04.605Z,1.00
2018-12-19T05:35:05.047Z,1.00
2018-12-19T05:36:05.125Z,1.00
2018-12-19T05:37:05.010Z,1.00
2018-12-19T05:38:04.355Z,1.00
2018-12-19T05:39:04.676Z,1.00
2018-12-19T05:40:04.883Z,1.00
2018-12-19T05:41:05.064Z,1.00
2018-12-19T05:42:04.391Z,1.00
2018-12-19T05:43:04.720Z,1.00
2018-12-19T05:44:04.733Z,1.00
2018-12-19T05:45:04.817Z,1.00
2018-12-19T05:46:04.821Z,1.00
2018-12-19T05:47:04.317Z,1.00
2018-12-19T05:48:04.546Z,1.00
2018-12-19T05:49:05.065Z,1.00
2018-12-19T05:50:04.709Z,1.00
2018-12-19T05:51:04.614Z,1.00
2018-12-19T05:52:04.838Z,1.00
2018-12-19T05:53:04.567Z,1.00
2018-12-19T05:54:04.796Z,1.00
2018-12-19T05:55:04.206Z,1.10
2018-12-19T05:56:04.385Z,1.00
2018-12-19T05:57:04.627Z,1.00
2018-12-19T05:58:04.690Z,1.00
2018-12-19T05:59:04.987Z,1.00
2018-12-19T06:00:05.074Z,1.00
2018-12-19T06:01:04.387Z,1.00
2018-12-19T06:02:04.394Z,1.00
2018-12-19T06:03:04.592Z,1.10
2018-12-19T06:04:05.112Z,1.00
2018-12-19T06:05:05.179Z,1.10
2018-12-19T06:06:04.166Z,1.10
2018-12-19T06:07:04.391Z,1.10
2018-12-19T06:08:04.592Z,1.10
2018-12-19T06:09:04.905Z,1.10
2018-12-19T06:10:04.552Z,1.10
2018-12-19T06:11:04.472Z,1.10
2018-12-19T06:12:04.804Z,1.10
2018-12-19T06:13:05.091Z,1.10
2018-12-19T06:14:05.175Z,1.10
2018-12-19T06:15:04.189Z,1.10
2018-12-19T06:16:04.276Z,1.10
2018-12-19T06:17:04.355Z,1.10
2018-12-19T06:18:04.601Z,1.10
2018-12-19T06:19:04.520Z,1.10
2018-12-19T06:20:05.096Z,1.10
2018-12-19T06:21:04.148Z,1.10
2018-12-19T06:22:04.483Z,1.10
2018-12-19T06:23:04.416Z,1.10
2018-12-19T06:24:04.950Z,1.10
2018-12-19T06:25:04.338Z,1.10
2018-12-19T06:26:04.612Z,1.10
2018-12-19T06:27:04.520Z,1.10
2018-12-19T06:28:04.578Z,1.10
2018-12-19T06:29:04.814Z,1.10
2018-12-19T06:30:04.539Z,1.20
2018-12-19T06:31:04.923Z,1.20
2018-12-19T06:32:04.280Z,1.10
2018-12-19T06:33:04.318Z,1.20
2018-12-19T06:34:04.594Z,1.20
2018-12-19T06:35:05.050Z,1.20
2018-12-19T06:36:05.200Z,1.20
2018-12-19T06:37:04.569Z,1.10
2018-12-19T06:38:04.497Z,1.10
2018-12-19T06:39:04.765Z,1.10
2018-12-19T06:40:05.180Z,1.10
2018-12-19T06:41:04.215Z,1.10
2018-12-19T06:42:04.310Z,1.10
2018-12-19T06:43:04.695Z,1.10
2018-12-19T06:44:04.613Z,1.10
2018-12-19T06:45:04.787Z,1.10
2018-12-19T06:46:05.019Z,1.20
2018-12-19T06:47:05.020Z,1.20
2018-12-19T06:48:05.123Z,1.20
2018-12-19T06:49:05.191Z,1.30
2018-12-19T06:50:04.443Z,1.30
2018-12-19T06:51:04.541Z,1.30
2018-12-19T06:52:04.514Z,1.30
2018-12-19T06:53:04.849Z,1.40
2018-12-19T06:54:04.947Z,1.40
2018-12-19T06:55:04.979Z,1.40
2018-12-19T06:56:04.876Z,1.40
2018-12-19T06:57:04.880Z,1.50
2018-12-19T06:58:04.304Z,1.50
2018-12-19T06:59:04.556Z,1.50
2018-12-19T07:00:04.300Z,1.50
2018-12-19T07:01:04.543Z,1.50
2018-12-19T07:02:05.113Z,1.50
2018-12-19T07:03:04.233Z,1.50
2018-12-19T07:04:04.483Z,1.50
2018-12-19T07:05:04.896Z,1.50
2018-12-19T07:06:04.222Z,1.50
2018-12-19T07:07:04.276Z,1.50
2018-12-19T07:08:04.664Z,1.60
2018-12-19T07:09:04.634Z,1.50
2018-12-19T07:10:04.962Z,1.60
2018-12-19T07:11:05.005Z,1.60
2018-12-19T07:12:04.987Z,1.60
2018-12-19T07:13:05.017Z,1.60
2018-12-19T07:14:04.424Z,1.60
2018-12-19T07:15:04.443Z,1.60
2018-12-19T07:16:04.591Z,1.60
2018-12-19T07:17:04.812Z,1.60
2018-12-19T07:18:04.859Z,1.60
2018-12-19T07:19:04.446Z,1.60
2018-12-19T07:20:04.549Z,1.60
2018-12-19T07:21:04.690Z,1.60
2018-12-19T07:22:04.667Z,1.60
2018-12-19T07:23:04.731Z,1.60
2018-12-19T07:24:04.909Z,1.60
2018-12-19T07:25:05.163Z,1.60
2018-12-19T07:26:05.158Z,1.70
2018-12-19T07:27:04.274Z,1.70
2018-12-19T07:28:04.267Z,1.70
2018-12-19T07:29:04.395Z,1.70
2018-12-19T07:30:04.875Z,1.70
2018-12-19T07:31:04.943Z,1.70
2018-12-19T07:32:05.008Z,1.70
2018-12-19T07:33:05.254Z,1.70
2018-12-19T07:34:04.261Z,1.70
2018-12-19T07:35:04.601Z,1.70
2018-12-19T07:36:05.226Z,1.70
2018-12-19T07:37:04.272Z,1.70
2018-12-19T07:38:04.411Z,1.70
2018-12-19T07:39:04.745Z,1.70
2018-12-19T07:40:04.733Z,1.70
2018-12-19T07:41:04.547Z,1.70
2018-12-19T07:42:04.773Z,1.70
2018-12-19T07:43:04.714Z,1.70
2018-12-19T07:44:04.492Z,1.70
2018-12-19T07:45:04.686Z,1.70
2018-12-19T07:46:04.831Z,1.70
2018-12-19T07:47:05.114Z,1.70
2018-12-19T07:48:05.293Z,1.70
2018-12-19T07:49:04.205Z,1.70
2018-12-19T07:50:04.894Z,1.70
2018-12-19T07:51:04.860Z,1.70
2018-12-19T07:52:04.978Z,1.70
2018-12-19T07:53:05.020Z,1.70
2018-12-19T07:54:04.960Z,1.70
2018-12-19T07:55:05.062Z,1.70
2018-12-19T07:56:05.240Z,1.70
2018-12-19T07:57:04.447Z,1.70
2018-12-19T07:58:04.974Z,1.70
2018-12-19T07:59:04.989Z,1.70
2018-12-19T08:00:05.099Z,1.70
2018-12-19T08:01:04.491Z,1.70
2018-12-19T08:02:04.524Z,1.70
2018-12-19T08:03:05.057Z,1.70
2018-12-19T08:04:05.238Z,1.80
2018-12-19T08:05:04.246Z,1.80
2018-12-19T08:06:04.740Z,1.80
2018-12-19T08:07:04.312Z,1.80
2018-12-19T08:08:04.797Z,1.80
2018-12-19T08:09:05.135Z,1.80
2018-12-19T08:10:04.393Z,1.80
2018-12-19T08:11:04.650Z,1.80
2018-12-19T08:12:04.796Z,1.90
2018-12-19T08:13:04.923Z,1.90
2018-12-19T08:14:04.965Z,1.90
2018-12-19T08:15:04.571Z,1.90
2018-12-19T08:16:04.541Z,1.90
2018-12-19T08:17:04.916Z,1.90
2018-12-19T08:18:05.667Z,1.90
2018-12-19T08:19:04.488Z,1.90
2018-12-19T08:20:04.789Z,1.90
2018-12-19T08:21:04.794Z,1.90
2018-12-19T08:22:04.954Z,1.90
2018-12-19T08:23:04.585Z,1.90
2018-12-19T08:24:04.697Z,1.90
2018-12-19T08:25:04.848Z,2.00
2018-12-19T08:26:05.255Z,2.00
2018-12-19T08:27:04.870Z,2.00
2018-12-19T08:28:04.172Z,2.00
2018-12-19T08:29:09.246Z,2.00
2018-12-19T08:30:04.596Z,2.10
2018-12-19T08:31:04.816Z,2.10
2018-12-19T08:32:05.265Z,2.10
2018-12-19T08:33:05.220Z,2.10
2018-12-19T08:34:05.150Z,2.10
2018-12-19T08:35:04.196Z,2.10
2018-12-19T08:36:04.907Z,2.10
2018-12-19T08:37:05.206Z,2.10
2018-12-19T08:38:04.354Z,2.20
2018-12-19T08:39:05.029Z,2.20
2018-12-19T08:40:05.173Z,2.20
2018-12-19T08:41:04.464Z,2.20
2018-12-19T08:42:05.078Z,2.20
2018-12-19T08:43:05.286Z,2.20
2018-12-19T08:44:04.377Z,2.20
2018-12-19T08:45:04.665Z,2.20
2018-12-19T08:46:04.719Z,2.20
2018-12-19T08:47:04.862Z,2.20
2018-12-19T08:48:05.011Z,2.30
2018-12-19T08:49:04.687Z,2.30
2018-12-19T08:50:05.023Z,2.30
2018-12-19T08:51:04.901Z,2.30
2018-12-19T08:52:05.998Z,2.30
2018-12-19T08:53:04.428Z,2.30
2018-12-19T08:54:04.398Z,2.30
2018-12-19T08:55:05.240Z,2.30
2018-12-19T08:56:04.672Z,2.40
2018-12-19T08:57:04.814Z,2.40
2018-12-19T08:58:04.321Z,2.40
2018-12-19T08:59:04.827Z,2.40
2018-12-19T09:00:04.863Z,2.40
2018-12-19T09:01:09.399Z,2.40
2018-12-19T09:02:04.801Z,2.50
2018-12-19T09:03:04.802Z,2.50
2018-12-19T09:04:04.942Z,2.50
2018-12-19T09:05:04.912Z,2.50
2018-12-19T09:06:04.833Z,2.50
2018-12-19T09:07:04.423Z,2.50
2018-12-19T09:08:04.405Z,2.50
2018-12-19T09:09:05.012Z,2.50
2018-12-19T09:10:04.926Z,2.50
2018-12-19T09:11:05.748Z,2.50
2018-12-19T09:12:04.549Z,2.50
2018-12-19T09:13:04.996Z,2.50
2018-12-19T09:14:04.822Z,2.60
2018-12-19T09:15:04.909Z,2.60
2018-12-19T09:16:04.368Z,2.60
2018-12-19T09:17:05.043Z,2.60
2018-12-19T09:18:04.450Z,2.60
2018-12-19T09:19:04.905Z,2.60
2018-12-19T09:20:05.047Z,2.60
2018-12-19T09:21:05.015Z,2.60
2018-12-19T09:22:04.679Z,2.60
2018-12-19T09:23:04.878Z,2.60
2018-12-19T09:24:04.957Z,2.60
2018-12-19T09:25:05.219Z,2.60
2018-12-19T09:26:04.355Z,2.60
2018-12-19T09:27:04.365Z,2.60
2018-12-19T09:28:04.837Z,2.60
2018-12-19T09:29:04.124Z,2.60
2018-12-19T09:30:04.422Z,2.60
2018-12-19T09:31:04.652Z,2.60
2018-12-19T09:32:04.339Z,2.60
2018-12-19T09:33:04.291Z,2.60
2018-12-19T09:34:04.367Z,2.60
2018-12-19T09:35:10.084Z,2.60
2018-12-19T09:36:04.488Z,2.60
2018-12-19T09:37:04.688Z,2.60
2018-12-19T09:38:04.258Z,2.60
2018-12-19T09:39:04.588Z,2.60
2018-12-19T09:40:05.064Z,2.60
2018-12-19T09:41:05.022Z,2.60
2018-12-19T09:42:04.864Z,2.60
2018-12-19T09:43:04.508Z,2.60
2018-12-19T09:44:05.154Z,2.60
2018-12-19T09:45:04.278Z,2.60
2018-12-19T09:46:04.928Z,2.60
2018-12-19T09:47:04.886Z,2.60
2018-12-19T09:48:04.934Z,2.60
2018-12-19T09:49:04.937Z,2.60
2018-12-19T09:50:04.358Z,2.70
2018-12-19T09:51:04.703Z,2.70
2018-12-19T09:52:04.980Z,2.60
2018-12-19T09:53:05.018Z,2.70
2018-12-19T09:54:05.126Z,2.70
2018-12-19T09:55:04.405Z,2.70
2018-12-19T09:56:04.574Z,2.70
2018-12-19T09:57:05.321Z,2.60
2018-12-19T09:58:05.179Z,2.60
2018-12-19T09:59:04.279Z,2.70
2018-12-19T10:00:04.291Z,2.60
2018-12-19T10:01:05.405Z,2.60
2018-12-19T10:02:04.452Z,2.60
2018-12-19T10:03:04.523Z,2.60
2018-12-19T10:04:04.581Z,2.60
2018-12-19T10:05:05.036Z,2.60
2018-12-19T10:06:05.112Z,2.60
2018-12-19T10:07:04.298Z,2.60
2018-12-19T10:08:04.425Z,2.60
2018-12-19T10:09:04.407Z,2.60
2018-12-19T10:10:04.545Z,2.60
2018-12-19T10:11:04.896Z,2.60
2018-12-19T10:12:05.140Z,2.60
2018-12-19T10:13:04.448Z,2.60
2018-12-19T10:14:04.441Z,2.60
2018-12-19T10:15:04.740Z,2.60
2018-12-19T10:16:05.047Z,2.60
2018-12-19T10:17:05.160Z,2.60
2018-12-19T10:18:04.448Z,2.60
2018-12-19T10:19:04.439Z,2.60
2018-12-19T10:20:04.488Z,2.60
2018-12-19T10:21:04.618Z,2.70
2018-12-19T10:22:04.982Z,2.70
2018-12-19T10:23:05.021Z,2.70
2018-12-19T10:24:05.075Z,2.70
2018-12-19T10:25:04.725Z,2.70
2018-12-19T10:26:04.680Z,2.70
2018-12-19T10:27:05.055Z,2.70
2018-12-19T10:28:04.767Z,2.70
2018-12-19T10:29:04.651Z,2.70
2018-12-19T10:30:05.185Z,2.70
2018-12-19T10:31:05.095Z,2.70
2018-12-19T10:32:05.268Z,2.70
2018-12-19T10:33:04.588Z,2.70
2018-12-19T10:34:04.687Z,2.70
2018-12-19T10:35:04.796Z,2.70
2018-12-19T10:36:04.994Z,2.70
2018-12-19T10:37:04.316Z,2.80
2018-12-19T10:38:04.329Z,2.80
2018-12-19T10:39:04.688Z,2.80
2018-12-19T10:40:04.401Z,2.80
2018-12-19T10:41:04.668Z,2.80
2018-12-19T10:42:04.769Z,2.80
2018-12-19T10:43:05.092Z,2.80
2018-12-19T10:44:05.088Z,2.80
2018-12-19T10:45:04.434Z,2.80
2018-12-19T10:46:04.749Z,2.80
2018-12-19T10:47:04.824Z,2.80
2018-12-19T10:48:04.292Z,2.80
2018-12-19T10:49:04.787Z,2.80
2018-12-19T10:50:05.108Z,2.80
2018-12-19T10:51:04.518Z,2.80
2018-12-19T10:52:04.743Z,2.80
2018-12-19T10:53:05.201Z,2.90
2018-12-19T10:54:05.146Z,2.90
2018-12-19T10:55:05.107Z,2.90
2018-12-19T10:56:04.716Z,2.90
2018-12-19T10:57:05.198Z,2.90
2018-12-19T10:58:05.048Z,2.90
2018-12-19T10:59:04.559Z,2.90
2018-12-19T11:00:04.788Z,2.90
2018-12-19T11:01:05.033Z,2.90
2018-12-19T11:02:04.269Z,2.90
2018-12-19T11:03:04.678Z,3.00
2018-12-19T11:04:04.955Z,3.00
2018-12-19T11:05:05.200Z,3.00
2018-12-19T11:06:04.378Z,3.00
2018-12-19T11:07:04.464Z,3.00
2018-12-19T11:08:09.439Z,3.00
2018-12-19T11:09:04.816Z,3.00
2018-12-19T11:10:04.925Z,3.00
2018-12-19T11:11:04.233Z,3.00
2018-12-19T11:12:04.389Z,3.00
2018-12-19T11:13:04.454Z,3.00
2018-12-19T11:14:04.758Z,3.00
2018-12-19T11:15:04.803Z,3.00
2018-12-19T11:16:05.383Z,3.10
2018-12-19T11:17:05.042Z,3.10
2018-12-19T11:18:04.583Z,3.10
2018-12-19T11:19:04.651Z,3.10
2018-12-19T11:20:04.607Z,3.10
2018-12-19T11:21:04.169Z,3.10
2018-12-19T11:22:04.353Z,3.10
2018-12-19T11:23:04.803Z,3.10
2018-12-19T11:24:05.030Z,3.10
2018-12-19T11:25:04.483Z,3.10
2018-12-19T11:26:04.738Z,3.10
2018-12-19T11:27:04.964Z,3.10
2018-12-19T11:28:05.233Z,3.00
2018-12-19T11:29:04.263Z,3.10
2018-12-19T11:30:04.327Z,3.10
2018-12-19T11:31:04.302Z,3.10
2018-12-19T11:32:04.907Z,3.10
2018-12-19T11:33:04.971Z,3.10
2018-12-19T11:34:04.600Z,3.10
2018-12-19T11:35:04.712Z,3.10
2018-12-19T11:36:04.963Z,3.10
2018-12-19T11:37:05.102Z,3.10
2018-12-19T11:38:04.811Z,3.10
2018-12-19T11:39:04.565Z,3.10
2018-12-19T11:40:05.244Z,3.10
2018-12-19T11:41:04.495Z,3.10
2018-12-19T11:42:04.710Z,3.00
2018-12-19T11:43:05.002Z,3.00
2018-12-19T11:44:05.117Z,3.00
2018-12-19T11:45:05.243Z,3.00
2018-12-19T11:46:04.247Z,3.00
2018-12-19T11:47:05.224Z,3.00
2018-12-19T11:48:05.005Z,3.00
2018-12-19T11:49:05.031Z,3.00
2018-12-19T11:50:04.462Z,3.00
2018-12-19T11:51:05.032Z,3.00
2018-12-19T11:52:09.925Z,3.00
2018-12-19T11:53:04.395Z,3.00
2018-12-19T11:54:04.487Z,3.00
2018-12-19T11:55:04.539Z,3.00
2018-12-19T11:56:04.814Z,3.00
2018-12-19T11:57:04.866Z,3.00
2018-12-19T11:58:04.177Z,3.00
2018-12-19T11:59:04.735Z,3.00
2018-12-19T12:00:04.487Z,3.00
2018-12-19T12:01:04.503Z,3.00
2018-12-19T12:02:04.706Z,3.00
2018-12-19T12:03:05.160Z,3.00
2018-12-19T12:04:04.586Z,3.00
2018-12-19T12:05:04.708Z,3.00
2018-12-19T12:06:05.155Z,3.00
2018-12-19T12:07:04.581Z,3.00
2018-12-19T12:08:05.179Z,3.00
2018-12-19T12:09:04.495Z,3.00
2018-12-19T12:10:05.191Z,3.00
2018-12-19T12:11:04.262Z,3.00
2018-12-19T12:12:04.531Z,3.00
2018-12-19T12:13:04.956Z,3.00
2018-12-19T12:14:05.116Z,3.00
2018-12-19T12:15:04.341Z,3.00
2018-12-19T12:16:04.516Z,3.00
2018-12-19T12:17:04.611Z,3.00
2018-12-19T12:18:05.110Z,3.00
2018-12-19T12:19:04.610Z,3.00
2018-12-19T12:20:04.491Z,3.00
2018-12-19T12:21:04.717Z,3.00
2018-12-19T12:22:05.111Z,3.00
2018-12-19T12:23:04.444Z,3.00
2018-12-19T12:24:04.866Z,3.00
2018-12-19T12:25:04.939Z,3.00
2018-12-19T12:26:05.019Z,3.00
2018-12-19T12:27:05.150Z,3.00
2018-12-19T12:28:04.298Z,3.00
2018-12-19T12:29:04.481Z,3.00
2018-12-19T12:30:04.512Z,3.00
2018-12-19T12:31:04.913Z,3.00
2018-12-19T12:32:04.995Z,2.90
2018-12-19T12:33:04.373Z,3.00
2018-12-19T12:34:04.229Z,3.00
2018-12-19T12:35:04.452Z,3.00
2018-12-19T12:36:04.501Z,2.90
2018-12-19T12:37:06.283Z,3.00
2018-12-19T12:38:04.246Z,3.00
2018-12-19T12:39:05.621Z,3.00
2018-12-19T12:40:04.494Z,3.00
2018-12-19T12:41:04.769Z,3.00
2018-12-19T12:42:04.769Z,3.00
2018-12-19T12:43:04.860Z,3.00
2018-12-19T12:44:04.443Z,3.00
2018-12-19T12:45:04.671Z,3.00
2018-12-19T12:46:04.209Z,3.00
2018-12-19T12:47:04.826Z,3.00
2018-12-19T12:48:05.026Z,3.00
2018-12-19T12:49:05.223Z,3.00
2018-12-19T12:50:04.305Z,3.00
2018-12-19T12:51:04.367Z,3.00
2018-12-19T12:52:05.033Z,3.00
2018-12-19T12:53:04.388Z,3.00
2018-12-19T12:54:04.543Z,3.00
2018-12-19T12:55:04.471Z,3.00
2018-12-19T12:56:04.766Z,3.00
2018-12-19T12:57:04.289Z,3.00
2018-12-19T12:58:04.546Z,3.00
2018-12-19T12:59:04.672Z,3.00
2018-12-19T13:00:09.948Z,3.00
2018-12-19T13:01:04.439Z,3.00
2018-12-19T13:02:04.567Z,3.00
2018-12-19T13:03:04.848Z,3.00
2018-12-19T13:04:04.268Z,3.00
2018-12-19T13:05:04.643Z,3.00
2018-12-19T13:06:04.850Z,3.00
2018-12-19T13:07:05.203Z,3.00
2018-12-19T13:08:04.640Z,3.00
2018-12-19T13:09:05.211Z,3.00
2018-12-19T13:10:04.659Z,3.00
2018-12-19T13:11:04.550Z,3.00
2018-12-19T13:12:04.797Z,3.00
2018-12-19T13:13:04.326Z,3.00
2018-12-19T13:14:04.694Z,3.00
2018-12-19T13:15:04.955Z,3.00
2018-12-19T13:16:05.193Z,3.00
2018-12-19T13:17:04.562Z,3.00
2018-12-19T13:18:04.940Z,3.00